sensor_id;sensor_type;location;lat;lon;timestamp;P1;durP1;ratioP1;P2;durP2;ratioP2
9914;SDS011;4996;48.746;9.174;2023-03-03T00:02:14;35.47;;;18.63;;
9914;SDS011;4996;48.746;9.174;2023-03-03T00:04:40;35.80;;;19.70;;
9914;SDS011;4996;48.746;9.174;2023-03-03T00:07:05;36.20;;;18.90;;
9914;SDS011;4996;48.746;9.174;2023-03-03T00:09:31;31.20;;;17.80;;
9914;SDS011;4996;48.746;9.174;2023-03-03T00:12:16;35.70;;;20.10;;
9914;SDS011;4996;48.746;9.174;2023-03-03T00:14:50;37.13;;;20.17;;
9914;SDS011;4996;48.746;9.174;2023-03-03T00:17:20;40.23;;;19.40;;
9914;SDS011;4996;48.746;9.174;2023-03-03T00:19:48;36.15;;;19.20;;
9914;SDS011;4996;48.746;9.174;2023-03-03T00:22:25;47.10;;;20.42;;
9914;SDS011;4996;48.746;9.174;2023-03-03T00:25:20;40.28;;;19.52;;
9914;SDS011;4996;48.746;9.174;2023-03-03T00:27:54;36.83;;;18.75;;
9914;SDS011;4996;48.746;9.174;2023-03-03T00:30:24;39.40;;;19.23;;
9914;SDS011;4996;48.746;9.174;2023-03-03T00:32:52;49.40;;;20.50;;
9914;SDS011;4996;48.746;9.174;2023-03-03T00:35:32;37.92;;;20.25;;
9914;SDS011;4996;48.746;9.174;2023-03-03T00:38:11;38.25;;;18.85;;
9914;SDS011;4996;48.746;9.174;2023-03-03T00:40:40;47.25;;;20.85;;
9914;SDS011;4996;48.746;9.174;2023-03-03T00:43:25;36.23;;;20.57;;
9914;SDS011;4996;48.746;9.174;2023-03-03T00:45:58;44.50;;;22.65;;
9914;SDS011;4996;48.746;9.174;2023-03-03T00:50:54;38.45;;;20.30;;
9914;SDS011;4996;48.746;9.174;2023-03-03T00:53:22;41.17;;;20.48;;
9914;SDS011;4996;48.746;9.174;2023-03-03T00:55:49;42.42;;;21.45;;
9914;SDS011;4996;48.746;9.174;2023-03-03T00:58:16;45.08;;;21.15;;
9914;SDS011;4996;48.746;9.174;2023-03-03T01:00:42;35.75;;;19.00;;
9914;SDS011;4996;48.746;9.174;2023-03-03T01:03:09;40.53;;;19.30;;
9914;SDS011;4996;48.746;9.174;2023-03-03T01:05:38;44.17;;;20.95;;
9914;SDS011;4996;48.746;9.174;2023-03-03T01:08:04;40.90;;;20.08;;
9914;SDS011;4996;48.746;9.174;2023-03-03T01:10:31;43.37;;;19.80;;
9914;SDS011;4996;48.746;9.174;2023-03-03T01:13:00;42.08;;;20.08;;
9914;SDS011;4996;48.746;9.174;2023-03-03T01:15:26;40.03;;;20.70;;
9914;SDS011;4996;48.746;9.174;2023-03-03T01:17:53;41.37;;;21.00;;
9914;SDS011;4996;48.746;9.174;2023-03-03T01:20:19;39.60;;;20.35;;
9914;SDS011;4996;48.746;9.174;2023-03-03T01:22:44;38.07;;;19.33;;
9914;SDS011;4996;48.746;9.174;2023-03-03T01:25:10;41.33;;;19.87;;
9914;SDS011;4996;48.746;9.174;2023-03-03T01:27:35;45.73;;;20.27;;
9914;SDS011;4996;48.746;9.174;2023-03-03T01:30:02;44.43;;;20.60;;
9914;SDS011;4996;48.746;9.174;2023-03-03T01:32:29;40.63;;;18.65;;
9914;SDS011;4996;48.746;9.174;2023-03-03T01:34:54;44.07;;;20.60;;
9914;SDS011;4996;48.746;9.174;2023-03-03T01:37:20;55.53;;;22.40;;
9914;SDS011;4996;48.746;9.174;2023-03-03T01:39:50;46.33;;;20.57;;
9914;SDS011;4996;48.746;9.174;2023-03-03T01:42:16;45.38;;;21.00;;
9914;SDS011;4996;48.746;9.174;2023-03-03T01:44:43;48.28;;;20.98;;
9914;SDS011;4996;48.746;9.174;2023-03-03T01:47:12;40.97;;;19.60;;
9914;SDS011;4996;48.746;9.174;2023-03-03T01:49:47;36.50;;;19.90;;
9914;SDS011;4996;48.746;9.174;2023-03-03T01:54:52;39.90;;;18.65;;
9914;SDS011;4996;48.746;9.174;2023-03-03T01:57:26;39.00;;;19.65;;
9914;SDS011;4996;48.746;9.174;2023-03-03T01:59:58;47.20;;;21.05;;
9914;SDS011;4996;48.746;9.174;2023-03-03T02:02:26;39.50;;;20.20;;
9914;SDS011;4996;48.746;9.174;2023-03-03T02:04:52;37.80;;;19.50;;
9914;SDS011;4996;48.746;9.174;2023-03-03T02:07:18;34.28;;;20.15;;
9914;SDS011;4996;48.746;9.174;2023-03-03T02:09:49;42.88;;;21.00;;
9914;SDS011;4996;48.746;9.174;2023-03-03T02:12:25;37.95;;;19.23;;
9914;SDS011;4996;48.746;9.174;2023-03-03T02:14:57;43.38;;;20.60;;
9914;SDS011;4996;48.746;9.174;2023-03-03T02:17:23;49.10;;;21.97;;
9914;SDS011;4996;48.746;9.174;2023-03-03T02:19:58;40.70;;;20.17;;
9914;SDS011;4996;48.746;9.174;2023-03-03T02:22:40;37.78;;;18.45;;
9914;SDS011;4996;48.746;9.174;2023-03-03T02:25:13;40.10;;;19.10;;
9914;SDS011;4996;48.746;9.174;2023-03-03T02:27:46;47.95;;;21.48;;
9914;SDS011;4996;48.746;9.174;2023-03-03T02:30:16;43.73;;;20.47;;
9914;SDS011;4996;48.746;9.174;2023-03-03T02:32:44;36.78;;;19.58;;
9914;SDS011;4996;48.746;9.174;2023-03-03T02:35:26;35.10;;;18.80;;
9914;SDS011;4996;48.746;9.174;2023-03-03T02:37:55;43.38;;;20.15;;
9914;SDS011;4996;48.746;9.174;2023-03-03T02:40:25;38.35;;;19.08;;
9914;SDS011;4996;48.746;9.174;2023-03-03T02:42:57;44.72;;;21.50;;
9914;SDS011;4996;48.746;9.174;2023-03-03T02:45:24;37.17;;;19.83;;
9914;SDS011;4996;48.746;9.174;2023-03-03T02:47:50;53.80;;;19.63;;
9914;SDS011;4996;48.746;9.174;2023-03-03T02:50:15;39.07;;;19.27;;
9914;SDS011;4996;48.746;9.174;2023-03-03T02:52:41;50.43;;;20.70;;
9914;SDS011;4996;48.746;9.174;2023-03-03T02:55:07;51.37;;;22.00;;
9914;SDS011;4996;48.746;9.174;2023-03-03T02:57:33;48.97;;;21.65;;
9914;SDS011;4996;48.746;9.174;2023-03-03T02:59:58;48.90;;;22.87;;
9914;SDS011;4996;48.746;9.174;2023-03-03T03:02:24;43.63;;;20.13;;
9914;SDS011;4996;48.746;9.174;2023-03-03T03:04:51;48.95;;;21.23;;
9914;SDS011;4996;48.746;9.174;2023-03-03T03:07:16;45.40;;;21.27;;
9914;SDS011;4996;48.746;9.174;2023-03-03T03:09:42;45.93;;;22.23;;
9914;SDS011;4996;48.746;9.174;2023-03-03T03:12:07;47.67;;;21.97;;
9914;SDS011;4996;48.746;9.174;2023-03-03T03:14:33;52.23;;;21.43;;
9914;SDS011;4996;48.746;9.174;2023-03-03T03:16:59;46.17;;;22.67;;
9914;SDS011;4996;48.746;9.174;2023-03-03T03:19:25;48.83;;;22.02;;
9914;SDS011;4996;48.746;9.174;2023-03-03T03:21:52;49.92;;;21.30;;
9914;SDS011;4996;48.746;9.174;2023-03-03T03:24:17;45.67;;;23.23;;
9914;SDS011;4996;48.746;9.174;2023-03-03T03:26:43;49.67;;;20.03;;
9914;SDS011;4996;48.746;9.174;2023-03-03T03:29:08;52.13;;;23.90;;
9914;SDS011;4996;48.746;9.174;2023-03-03T03:31:35;48.95;;;20.52;;
9914;SDS011;4996;48.746;9.174;2023-03-03T03:34:00;48.53;;;20.57;;
9914;SDS011;4996;48.746;9.174;2023-03-03T03:36:26;52.17;;;25.60;;
9914;SDS011;4996;48.746;9.174;2023-03-03T03:38:52;44.80;;;20.67;;
9914;SDS011;4996;48.746;9.174;2023-03-03T03:41:17;55.77;;;21.47;;
9914;SDS011;4996;48.746;9.174;2023-03-03T03:43:43;49.90;;;23.77;;
9914;SDS011;4996;48.746;9.174;2023-03-03T03:46:09;46.63;;;22.03;;
9914;SDS011;4996;48.746;9.174;2023-03-03T03:48:35;45.83;;;21.43;;
9914;SDS011;4996;48.746;9.174;2023-03-03T03:51:01;56.78;;;23.65;;
9914;SDS011;4996;48.746;9.174;2023-03-03T03:53:27;49.50;;;23.17;;
9914;SDS011;4996;48.746;9.174;2023-03-03T03:55:52;43.13;;;20.33;;
9914;SDS011;4996;48.746;9.174;2023-03-03T03:58:18;41.40;;;20.53;;
9914;SDS011;4996;48.746;9.174;2023-03-03T04:00:44;51.70;;;21.93;;
9914;SDS011;4996;48.746;9.174;2023-03-03T04:03:10;41.55;;;20.13;;
9914;SDS011;4996;48.746;9.174;2023-03-03T04:05:38;45.58;;;23.35;;
9914;SDS011;4996;48.746;9.174;2023-03-03T04:08:04;52.75;;;21.83;;
9914;SDS011;4996;48.746;9.174;2023-03-03T04:10:30;51.77;;;22.70;;
9914;SDS011;4996;48.746;9.174;2023-03-03T04:12:55;45.13;;;22.40;;
9914;SDS011;4996;48.746;9.174;2023-03-03T04:15:21;54.87;;;22.87;;
9914;SDS011;4996;48.746;9.174;2023-03-03T04:17:46;54.47;;;25.63;;
9914;SDS011;4996;48.746;9.174;2023-03-03T04:20:12;45.80;;;23.27;;
9914;SDS011;4996;48.746;9.174;2023-03-03T04:22:40;48.08;;;22.45;;
9914;SDS011;4996;48.746;9.174;2023-03-03T04:25:06;59.05;;;23.95;;
9914;SDS011;4996;48.746;9.174;2023-03-03T04:27:34;44.75;;;22.75;;
9914;SDS011;4996;48.746;9.174;2023-03-03T04:30:00;42.08;;;20.90;;
9914;SDS011;4996;48.746;9.174;2023-03-03T04:32:27;40.75;;;20.73;;
9914;SDS011;4996;48.746;9.174;2023-03-03T04:34:54;53.17;;;22.45;;
9914;SDS011;4996;48.746;9.174;2023-03-03T04:37:20;55.63;;;24.00;;
9914;SDS011;4996;48.746;9.174;2023-03-03T04:39:45;55.83;;;24.73;;
9914;SDS011;4996;48.746;9.174;2023-03-03T04:42:11;44.97;;;21.37;;
9914;SDS011;4996;48.746;9.174;2023-03-03T04:44:36;39.67;;;20.10;;
9914;SDS011;4996;48.746;9.174;2023-03-03T04:47:02;41.23;;;19.13;;
9914;SDS011;4996;48.746;9.174;2023-03-03T04:49:28;54.87;;;23.43;;
9914;SDS011;4996;48.746;9.174;2023-03-03T04:51:53;59.33;;;22.10;;
9914;SDS011;4996;48.746;9.174;2023-03-03T04:54:19;51.43;;;22.33;;
9914;SDS011;4996;48.746;9.174;2023-03-03T04:56:44;46.50;;;20.03;;
9914;SDS011;4996;48.746;9.174;2023-03-03T04:59:10;42.80;;;21.33;;
9914;SDS011;4996;48.746;9.174;2023-03-03T05:01:36;42.83;;;21.30;;
9914;SDS011;4996;48.746;9.174;2023-03-03T05:04:01;47.13;;;22.10;;
9914;SDS011;4996;48.746;9.174;2023-03-03T05:06:27;51.47;;;20.33;;
9914;SDS011;4996;48.746;9.174;2023-03-03T05:08:52;44.47;;;21.87;;
9914;SDS011;4996;48.746;9.174;2023-03-03T05:11:18;40.27;;;21.30;;
9914;SDS011;4996;48.746;9.174;2023-03-03T05:13:44;45.33;;;20.57;;
9914;SDS011;4996;48.746;9.174;2023-03-03T05:16:09;45.27;;;21.97;;
9914;SDS011;4996;48.746;9.174;2023-03-03T05:18:35;42.93;;;20.23;;
9914;SDS011;4996;48.746;9.174;2023-03-03T05:21:01;50.27;;;21.97;;
9914;SDS011;4996;48.746;9.174;2023-03-03T05:23:27;44.13;;;21.20;;
9914;SDS011;4996;48.746;9.174;2023-03-03T05:25:53;42.77;;;21.10;;
9914;SDS011;4996;48.746;9.174;2023-03-03T05:28:18;53.03;;;23.50;;
9914;SDS011;4996;48.746;9.174;2023-03-03T05:30:44;54.30;;;23.60;;
9914;SDS011;4996;48.746;9.174;2023-03-03T05:33:14;41.70;;;21.52;;
9914;SDS011;4996;48.746;9.174;2023-03-03T05:35:41;47.42;;;21.75;;
9914;SDS011;4996;48.746;9.174;2023-03-03T05:38:06;48.67;;;21.47;;
9914;SDS011;4996;48.746;9.174;2023-03-03T05:40:32;48.33;;;21.10;;
9914;SDS011;4996;48.746;9.174;2023-03-03T05:42:58;50.70;;;22.50;;
9914;SDS011;4996;48.746;9.174;2023-03-03T05:45:23;51.03;;;23.53;;
9914;SDS011;4996;48.746;9.174;2023-03-03T05:47:50;44.63;;;21.40;;
9914;SDS011;4996;48.746;9.174;2023-03-03T05:50:16;57.15;;;23.58;;
9914;SDS011;4996;48.746;9.174;2023-03-03T05:52:42;50.65;;;22.48;;
9914;SDS011;4996;48.746;9.174;2023-03-03T05:55:08;44.87;;;22.80;;
9914;SDS011;4996;48.746;9.174;2023-03-03T05:57:34;57.40;;;21.40;;
9914;SDS011;4996;48.746;9.174;2023-03-03T06:00:00;54.03;;;21.77;;
9914;SDS011;4996;48.746;9.174;2023-03-03T06:02:26;49.65;;;20.60;;
9914;SDS011;4996;48.746;9.174;2023-03-03T06:04:51;49.40;;;22.00;;
9914;SDS011;4996;48.746;9.174;2023-03-03T06:07:17;53.03;;;21.67;;
9914;SDS011;4996;48.746;9.174;2023-03-03T06:09:42;48.17;;;23.20;;
9914;SDS011;4996;48.746;9.174;2023-03-03T06:12:08;36.00;;;19.37;;
9914;SDS011;4996;48.746;9.174;2023-03-03T06:14:33;40.27;;;19.40;;
9914;SDS011;4996;48.746;9.174;2023-03-03T06:16:59;43.20;;;19.57;;
9914;SDS011;4996;48.746;9.174;2023-03-03T06:19:24;44.57;;;20.57;;
9914;SDS011;4996;48.746;9.174;2023-03-03T06:21:50;38.53;;;19.33;;
9914;SDS011;4996;48.746;9.174;2023-03-03T06:24:15;40.27;;;18.93;;
9914;SDS011;4996;48.746;9.174;2023-03-03T06:26:41;37.00;;;18.70;;
9914;SDS011;4996;48.746;9.174;2023-03-03T06:29:07;38.13;;;18.40;;
9914;SDS011;4996;48.746;9.174;2023-03-03T06:31:32;49.93;;;20.43;;
9914;SDS011;4996;48.746;9.174;2023-03-03T06:33:58;34.70;;;17.57;;
9914;SDS011;4996;48.746;9.174;2023-03-03T06:36:23;36.10;;;16.07;;
9914;SDS011;4996;48.746;9.174;2023-03-03T06:38:49;50.23;;;19.60;;
9914;SDS011;4996;48.746;9.174;2023-03-03T06:41:15;38.70;;;17.60;;
9914;SDS011;4996;48.746;9.174;2023-03-03T06:43:41;37.37;;;16.97;;
9914;SDS011;4996;48.746;9.174;2023-03-03T06:46:06;33.83;;;16.70;;
9914;SDS011;4996;48.746;9.174;2023-03-03T06:48:32;32.73;;;16.47;;
9914;SDS011;4996;48.746;9.174;2023-03-03T06:51:01;32.07;;;15.73;;
9914;SDS011;4996;48.746;9.174;2023-03-03T06:53:31;33.65;;;17.88;;
9914;SDS011;4996;48.746;9.174;2023-03-03T06:55:57;37.88;;;16.92;;
9914;SDS011;4996;48.746;9.174;2023-03-03T06:58:22;36.67;;;15.90;;
9914;SDS011;4996;48.746;9.174;2023-03-03T07:00:58;35.08;;;16.73;;
9914;SDS011;4996;48.746;9.174;2023-03-03T07:03:25;32.75;;;15.23;;
9914;SDS011;4996;48.746;9.174;2023-03-03T07:05:53;37.40;;;17.05;;
9914;SDS011;4996;48.746;9.174;2023-03-03T07:08:20;40.05;;;17.20;;
9914;SDS011;4996;48.746;9.174;2023-03-03T07:10:47;33.42;;;15.63;;
9914;SDS011;4996;48.746;9.174;2023-03-03T07:13:21;40.53;;;17.38;;
9914;SDS011;4996;48.746;9.174;2023-03-03T07:15:48;33.25;;;16.70;;
9914;SDS011;4996;48.746;9.174;2023-03-03T07:18:21;42.75;;;17.23;;
9914;SDS011;4996;48.746;9.174;2023-03-03T07:21:16;38.47;;;17.90;;
9914;SDS011;4996;48.746;9.174;2023-03-03T07:23:48;38.67;;;18.67;;
9914;SDS011;4996;48.746;9.174;2023-03-03T07:26:25;35.42;;;18.67;;
9914;SDS011;4996;48.746;9.174;2023-03-03T07:29:12;36.05;;;17.77;;
9914;SDS011;4996;48.746;9.174;2023-03-03T07:31:57;33.55;;;17.45;;
9914;SDS011;4996;48.746;9.174;2023-03-03T07:34:37;37.83;;;18.80;;
9914;SDS011;4996;48.746;9.174;2023-03-03T07:37:21;34.42;;;18.83;;
9914;SDS011;4996;48.746;9.174;2023-03-03T07:40:04;33.85;;;15.55;;
9914;SDS011;4996;48.746;9.174;2023-03-03T07:42:49;34.95;;;18.20;;
9914;SDS011;4996;48.746;9.174;2023-03-03T07:45:20;40.13;;;16.65;;
9914;SDS011;4996;48.746;9.174;2023-03-03T07:47:53;33.57;;;15.87;;
9914;SDS011;4996;48.746;9.174;2023-03-03T07:50:43;28.08;;;16.30;;
9914;SDS011;4996;48.746;9.174;2023-03-03T07:53:11;28.30;;;15.93;;
9914;SDS011;4996;48.746;9.174;2023-03-03T07:55:42;34.13;;;17.25;;
9914;SDS011;4996;48.746;9.174;2023-03-03T08:03:18;39.40;;;18.20;;
9914;SDS011;4996;48.746;9.174;2023-03-03T08:05:48;34.60;;;18.30;;
9914;SDS011;4996;48.746;9.174;2023-03-03T08:08:21;38.30;;;17.70;;
9914;SDS011;4996;48.746;9.174;2023-03-03T08:10:56;29.13;;;16.77;;
9914;SDS011;4996;48.746;9.174;2023-03-03T08:13:25;38.07;;;17.23;;
9914;SDS011;4996;48.746;9.174;2023-03-03T08:16:03;32.73;;;18.60;;
9914;SDS011;4996;48.746;9.174;2023-03-03T08:18:49;32.37;;;18.53;;
9914;SDS011;4996;48.746;9.174;2023-03-03T08:21:21;30.33;;;15.83;;
9914;SDS011;4996;48.746;9.174;2023-03-03T08:23:48;40.50;;;18.73;;
9914;SDS011;4996;48.746;9.174;2023-03-03T08:26:15;40.10;;;17.37;;
9914;SDS011;4996;48.746;9.174;2023-03-03T08:28:42;33.50;;;17.13;;
9914;SDS011;4996;48.746;9.174;2023-03-03T08:31:07;34.40;;;18.83;;
9914;SDS011;4996;48.746;9.174;2023-03-03T08:33:33;36.57;;;19.30;;
9914;SDS011;4996;48.746;9.174;2023-03-03T08:35:58;44.13;;;19.60;;
9914;SDS011;4996;48.746;9.174;2023-03-03T08:38:24;33.90;;;19.30;;
9914;SDS011;4996;48.746;9.174;2023-03-03T08:40:49;37.43;;;17.70;;
9914;SDS011;4996;48.746;9.174;2023-03-03T08:43:15;34.07;;;17.90;;
9914;SDS011;4996;48.746;9.174;2023-03-03T08:45:45;33.13;;;18.27;;
9914;SDS011;4996;48.746;9.174;2023-03-03T08:48:16;37.73;;;18.77;;
9914;SDS011;4996;48.746;9.174;2023-03-03T08:50:42;40.67;;;19.70;;
9914;SDS011;4996;48.746;9.174;2023-03-03T08:53:09;36.23;;;20.23;;
9914;SDS011;4996;48.746;9.174;2023-03-03T08:55:36;31.93;;;17.20;;
9914;SDS011;4996;48.746;9.174;2023-03-03T08:58:01;35.07;;;19.70;;
9914;SDS011;4996;48.746;9.174;2023-03-03T09:00:27;38.17;;;21.30;;
9914;SDS011;4996;48.746;9.174;2023-03-03T09:02:53;35.70;;;19.93;;
9914;SDS011;4996;48.746;9.174;2023-03-03T09:05:19;28.87;;;19.10;;
9914;SDS011;4996;48.746;9.174;2023-03-03T09:07:45;36.50;;;20.63;;
9914;SDS011;4996;48.746;9.174;2023-03-03T09:10:13;35.53;;;19.73;;
9914;SDS011;4996;48.746;9.174;2023-03-03T09:12:41;40.00;;;20.77;;
9914;SDS011;4996;48.746;9.174;2023-03-03T09:15:25;34.87;;;20.03;;
9914;SDS011;4996;48.746;9.174;2023-03-03T09:17:53;37.33;;;19.30;;
9914;SDS011;4996;48.746;9.174;2023-03-03T09:20:32;33.93;;;19.00;;
9914;SDS011;4996;48.746;9.174;2023-03-03T09:23:16;32.57;;;16.03;;
9914;SDS011;4996;48.746;9.174;2023-03-03T09:25:47;34.57;;;18.77;;
9914;SDS011;4996;48.746;9.174;2023-03-03T09:28:31;36.83;;;18.47;;
9914;SDS011;4996;48.746;9.174;2023-03-03T09:30:58;37.60;;;19.80;;
9914;SDS011;4996;48.746;9.174;2023-03-03T09:33:27;35.23;;;18.20;;
9914;SDS011;4996;48.746;9.174;2023-03-03T09:38:31;39.30;;;21.47;;
9914;SDS011;4996;48.746;9.174;2023-03-03T09:49:31;39.10;;;21.20;;
9914;SDS011;4996;48.746;9.174;2023-03-03T09:52:05;37.97;;;20.13;;
9914;SDS011;4996;48.746;9.174;2023-03-03T09:54:55;37.03;;;19.87;;
9914;SDS011;4996;48.746;9.174;2023-03-03T09:57:35;31.37;;;19.77;;
9914;SDS011;4996;48.746;9.174;2023-03-03T10:00:41;30.17;;;17.73;;
9914;SDS011;4996;48.746;9.174;2023-03-03T10:09:29;33.50;;;19.30;;
9914;SDS011;4996;48.746;9.174;2023-03-03T10:12:17;37.20;;;20.23;;
9914;SDS011;4996;48.746;9.174;2023-03-03T10:17:43;33.40;;;19.67;;
9914;SDS011;4996;48.746;9.174;2023-03-03T10:20:29;40.00;;;20.67;;
9914;SDS011;4996;48.746;9.174;2023-03-03T10:23:20;38.07;;;19.40;;
9914;SDS011;4996;48.746;9.174;2023-03-03T10:33:58;35.53;;;17.70;;
9914;SDS011;4996;48.746;9.174;2023-03-03T10:39:24;42.70;;;20.70;;
9914;SDS011;4996;48.746;9.174;2023-03-03T10:42:20;34.17;;;20.23;;
9914;SDS011;4996;48.746;9.174;2023-03-03T10:45:10;41.60;;;19.40;;
9914;SDS011;4996;48.746;9.174;2023-03-03T10:48:10;32.23;;;19.50;;
9914;SDS011;4996;48.746;9.174;2023-03-03T10:50:54;30.43;;;17.67;;
9914;SDS011;4996;48.746;9.174;2023-03-03T10:56:41;33.30;;;17.87;;
9914;SDS011;4996;48.746;9.174;2023-03-03T11:02:13;28.87;;;16.80;;
9914;SDS011;4996;48.746;9.174;2023-03-03T11:04:51;36.60;;;19.53;;
9914;SDS011;4996;48.746;9.174;2023-03-03T11:07:21;27.07;;;18.40;;
9914;SDS011;4996;48.746;9.174;2023-03-03T11:20:37;37.63;;;18.67;;
9914;SDS011;4996;48.746;9.174;2023-03-03T11:23:26;33.83;;;18.87;;
9914;SDS011;4996;48.746;9.174;2023-03-03T11:26:14;35.27;;;19.13;;
9914;SDS011;4996;48.746;9.174;2023-03-03T11:31:40;35.40;;;21.47;;
9914;SDS011;4996;48.746;9.174;2023-03-03T11:40:16;35.47;;;20.83;;
9914;SDS011;4996;48.746;9.174;2023-03-03T11:43:02;33.77;;;19.57;;
9914;SDS011;4996;48.746;9.174;2023-03-03T11:45:44;38.73;;;19.97;;
9914;SDS011;4996;48.746;9.174;2023-03-03T11:48:23;34.60;;;19.97;;
9914;SDS011;4996;48.746;9.174;2023-03-03T11:51:03;37.40;;;20.40;;
9914;SDS011;4996;48.746;9.174;2023-03-03T11:53:38;40.40;;;19.80;;
9914;SDS011;4996;48.746;9.174;2023-03-03T12:05:03;38.13;;;20.97;;
9914;SDS011;4996;48.746;9.174;2023-03-03T12:16:12;22.43;;;14.50;;
9914;SDS011;4996;48.746;9.174;2023-03-03T12:18:58;31.90;;;19.97;;
9914;SDS011;4996;48.746;9.174;2023-03-03T12:27:28;31.33;;;19.70;;
9914;SDS011;4996;48.746;9.174;2023-03-03T12:30:10;33.33;;;20.57;;
9914;SDS011;4996;48.746;9.174;2023-03-03T12:36:03;28.50;;;19.80;;
9914;SDS011;4996;48.746;9.174;2023-03-03T12:47:08;37.10;;;20.93;;
9914;SDS011;4996;48.746;9.174;2023-03-03T12:50:22;28.43;;;18.77;;
9914;SDS011;4996;48.746;9.174;2023-03-03T13:03:54;30.07;;;18.73;;
9914;SDS011;4996;48.746;9.174;2023-03-03T13:06:46;34.47;;;19.27;;
9914;SDS011;4996;48.746;9.174;2023-03-03T13:14:52;31.37;;;19.73;;
9914;SDS011;4996;48.746;9.174;2023-03-03T13:20:40;28.50;;;17.50;;
9914;SDS011;4996;48.746;9.174;2023-03-03T13:26:05;34.43;;;18.43;;
9914;SDS011;4996;48.746;9.174;2023-03-03T13:28:41;28.00;;;18.17;;
9914;SDS011;4996;48.746;9.174;2023-03-03T13:31:15;32.10;;;17.67;;
9914;SDS011;4996;48.746;9.174;2023-03-03T13:33:53;33.50;;;19.17;;
9914;SDS011;4996;48.746;9.174;2023-03-03T13:36:20;31.60;;;19.00;;
9914;SDS011;4996;48.746;9.174;2023-03-03T13:38:56;33.07;;;18.50;;
9914;SDS011;4996;48.746;9.174;2023-03-03T13:44:30;26.73;;;15.50;;
9914;SDS011;4996;48.746;9.174;2023-03-03T13:52:53;27.43;;;16.30;;
9914;SDS011;4996;48.746;9.174;2023-03-03T13:58:00;26.87;;;17.40;;
9914;SDS011;4996;48.746;9.174;2023-03-03T14:06:08;35.73;;;18.47;;
9914;SDS011;4996;48.746;9.174;2023-03-03T14:11:18;34.40;;;18.60;;
9914;SDS011;4996;48.746;9.174;2023-03-03T14:13:58;32.73;;;18.60;;
9914;SDS011;4996;48.746;9.174;2023-03-03T14:19:16;26.03;;;16.10;;
9914;SDS011;4996;48.746;9.174;2023-03-03T14:24:29;33.80;;;17.87;;
9914;SDS011;4996;48.746;9.174;2023-03-03T14:26:56;33.10;;;18.67;;
9914;SDS011;4996;48.746;9.174;2023-03-03T14:31:51;26.90;;;16.30;;
9914;SDS011;4996;48.746;9.174;2023-03-03T14:36:47;33.67;;;18.43;;
9914;SDS011;4996;48.746;9.174;2023-03-03T14:39:34;33.63;;;16.93;;
9914;SDS011;4996;48.746;9.174;2023-03-03T14:49:42;33.77;;;18.70;;
9914;SDS011;4996;48.746;9.174;2023-03-03T14:52:10;38.40;;;18.50;;
9914;SDS011;4996;48.746;9.174;2023-03-03T14:54:46;29.30;;;17.90;;
9914;SDS011;4996;48.746;9.174;2023-03-03T14:59:56;34.73;;;17.50;;
9914;SDS011;4996;48.746;9.174;2023-03-03T15:02:33;27.13;;;16.90;;
9914;SDS011;4996;48.746;9.174;2023-03-03T15:05:11;38.13;;;18.40;;
9914;SDS011;4996;48.746;9.174;2023-03-03T15:07:42;34.97;;;19.47;;
9914;SDS011;4996;48.746;9.174;2023-03-03T15:10:09;30.13;;;16.83;;
9914;SDS011;4996;48.746;9.174;2023-03-03T15:12:37;39.67;;;20.17;;
9914;SDS011;4996;48.746;9.174;2023-03-03T15:17:43;36.00;;;20.63;;
9914;SDS011;4996;48.746;9.174;2023-03-03T15:20:31;30.87;;;18.17;;
9914;SDS011;4996;48.746;9.174;2023-03-03T15:28:44;33.77;;;18.53;;
9914;SDS011;4996;48.746;9.174;2023-03-03T15:39:57;34.07;;;19.33;;
9914;SDS011;4996;48.746;9.174;2023-03-03T15:42:32;31.00;;;17.77;;
9914;SDS011;4996;48.746;9.174;2023-03-03T15:53:26;34.47;;;19.40;;
9914;SDS011;4996;48.746;9.174;2023-03-03T15:56:25;32.17;;;16.70;;
9914;SDS011;4996;48.746;9.174;2023-03-03T16:02:05;41.93;;;19.53;;
9914;SDS011;4996;48.746;9.174;2023-03-03T16:04:35;33.60;;;18.40;;
9914;SDS011;4996;48.746;9.174;2023-03-03T16:07:15;41.03;;;19.47;;
9914;SDS011;4996;48.746;9.174;2023-03-03T16:21:06;39.77;;;20.07;;
9914;SDS011;4996;48.746;9.174;2023-03-03T16:23:48;34.17;;;18.70;;
9914;SDS011;4996;48.746;9.174;2023-03-03T16:31:28;32.43;;;18.50;;
9914;SDS011;4996;48.746;9.174;2023-03-03T16:37:08;34.87;;;17.80;;
9914;SDS011;4996;48.746;9.174;2023-03-03T16:42:31;37.40;;;17.13;;
9914;SDS011;4996;48.746;9.174;2023-03-03T16:45:00;34.67;;;19.07;;
9914;SDS011;4996;48.746;9.174;2023-03-03T16:53:14;40.83;;;19.63;;
9914;SDS011;4996;48.746;9.174;2023-03-03T16:56:13;32.00;;;16.73;;
9914;SDS011;4996;48.746;9.174;2023-03-03T16:58:54;29.77;;;16.83;;
9914;SDS011;4996;48.746;9.174;2023-03-03T17:04:34;39.17;;;18.27;;
9914;SDS011;4996;48.746;9.174;2023-03-03T17:07:20;37.40;;;18.20;;
9914;SDS011;4996;48.746;9.174;2023-03-03T17:18:29;37.57;;;18.70;;
9914;SDS011;4996;48.746;9.174;2023-03-03T17:21:04;34.13;;;18.53;;
9914;SDS011;4996;48.746;9.174;2023-03-03T17:23:55;32.37;;;18.60;;
9914;SDS011;4996;48.746;9.174;2023-03-03T17:34:51;33.97;;;17.97;;
9914;SDS011;4996;48.746;9.174;2023-03-03T17:40:20;34.87;;;19.20;;
9914;SDS011;4996;48.746;9.174;2023-03-03T17:43:02;35.43;;;19.17;;
9914;SDS011;4996;48.746;9.174;2023-03-03T17:45:42;36.73;;;19.00;;
9914;SDS011;4996;48.746;9.174;2023-03-03T17:51:23;33.67;;;17.33;;
9914;SDS011;4996;48.746;9.174;2023-03-03T17:54:23;39.70;;;19.77;;
9914;SDS011;4996;48.746;9.174;2023-03-03T18:02:16;33.60;;;18.70;;
9914;SDS011;4996;48.746;9.174;2023-03-03T18:21:22;33.40;;;18.67;;
9914;SDS011;4996;48.746;9.174;2023-03-03T18:24:14;38.87;;;19.37;;
9914;SDS011;4996;48.746;9.174;2023-03-03T18:26:48;32.00;;;18.23;;
9914;SDS011;4996;48.746;9.174;2023-03-03T18:29:22;39.30;;;18.20;;
9914;SDS011;4996;48.746;9.174;2023-03-03T18:36:55;35.53;;;18.80;;
9914;SDS011;4996;48.746;9.174;2023-03-03T18:44:35;34.70;;;17.90;;
9914;SDS011;4996;48.746;9.174;2023-03-03T18:47:01;33.80;;;18.80;;
9914;SDS011;4996;48.746;9.174;2023-03-03T18:52:15;41.80;;;19.50;;
9914;SDS011;4996;48.746;9.174;2023-03-03T18:57:33;40.20;;;19.43;;
9914;SDS011;4996;48.746;9.174;2023-03-03T19:02:52;37.17;;;20.07;;
9914;SDS011;4996;48.746;9.174;2023-03-03T19:05:26;38.97;;;18.90;;
9914;SDS011;4996;48.746;9.174;2023-03-03T19:08:19;43.70;;;19.40;;
9914;SDS011;4996;48.746;9.174;2023-03-03T19:16:00;39.63;;;20.37;;
9914;SDS011;4996;48.746;9.174;2023-03-03T19:19:13;31.93;;;17.43;;
9914;SDS011;4996;48.746;9.174;2023-03-03T19:21:27;46.07;;;19.03;;
9914;SDS011;4996;48.746;9.174;2023-03-03T19:23:57;45.67;;;19.80;;
9914;SDS011;4996;48.746;9.174;2023-03-03T19:26:40;39.53;;;20.70;;
9914;SDS011;4996;48.746;9.174;2023-03-03T19:29:35;33.20;;;18.77;;
9914;SDS011;4996;48.746;9.174;2023-03-03T19:32:17;36.37;;;19.00;;
9914;SDS011;4996;48.746;9.174;2023-03-03T19:37:54;39.17;;;18.20;;
9914;SDS011;4996;48.746;9.174;2023-03-03T19:43:14;40.73;;;19.67;;
9914;SDS011;4996;48.746;9.174;2023-03-03T19:48:35;41.13;;;20.90;;
9914;SDS011;4996;48.746;9.174;2023-03-03T19:56:48;35.97;;;19.00;;
9914;SDS011;4996;48.746;9.174;2023-03-03T20:07:50;32.83;;;18.03;;
9914;SDS011;4996;48.746;9.174;2023-03-03T20:12:44;38.70;;;19.30;;
9914;SDS011;4996;48.746;9.174;2023-03-03T20:15:27;39.30;;;17.77;;
9914;SDS011;4996;48.746;9.174;2023-03-03T20:18:12;42.27;;;20.60;;
9914;SDS011;4996;48.746;9.174;2023-03-03T20:23:33;30.40;;;16.43;;
9914;SDS011;4996;48.746;9.174;2023-03-03T20:26:27;36.13;;;17.40;;
9914;SDS011;4996;48.746;9.174;2023-03-03T20:29:08;36.43;;;17.23;;
9914;SDS011;4996;48.746;9.174;2023-03-03T20:34:38;40.17;;;21.37;;
9914;SDS011;4996;48.746;9.174;2023-03-03T20:37:13;36.70;;;19.17;;
9914;SDS011;4996;48.746;9.174;2023-03-03T20:40:29;38.30;;;17.97;;
9914;SDS011;4996;48.746;9.174;2023-03-03T20:43:14;31.63;;;16.57;;